This is the latest recevied weather packets stored in our database for station/object N3WMC. If no packets are shown the sender has not sent any weather packets the latest 10 day(s).
| Time | Temp. | Humidity | Pressure | Rain* | Wind** | Luminosity | Snow |
|---|---|---|---|---|---|---|---|
| 1787764802 | 27.22° C | 54% | 1018 hPa | 0 mm | - | 513 W/m² | - |
| 1787764497 | 26.67° C | 60% | 1018.2 hPa | 0 mm | - | 561 W/m² | - |
| 1787764192 | 26.11° C | 61% | 1018.4 hPa | 0 mm | - | 668 W/m² | - |
| 1787763888 | 26.67° C | 58% | 1018.4 hPa | 0 mm | - | 545 W/m² | - |
| 1787763583 | 26.67° C | 60% | 1018.2 hPa | 0 mm | - | 586 W/m² | - |
| 1787763278 | 26.67° C | 60% | 1018.4 hPa | 0 mm | - | 515 W/m² | - |
| 1787762977 | 26.67° C | 58% | 1018.4 hPa | 0 mm | - | 642 W/m² | - |
| 1787762677 | 26.11° C | 62% | 1018.5 hPa | 0 mm | - | 549 W/m² | - |
| 1787762376 | 26.67° C | 58% | 1018.6 hPa | 0 mm | - | 202 W/m² | - |
| 1787762074 | 26.67° C | 56% | 1018.3 hPa | 0 mm | - | 700 W/m² | - |
| 1787761769 | 26.67° C | 56% | 1018.6 hPa | 0 mm | - | 668 W/m² | - |
| 1787761464 | 26.67° C | 57% | 1018.4 hPa | 0 mm | - | 668 W/m² | - |
| 1787761159 | 25.56° C | 59% | 1018.7 hPa | 0 mm | - | 641 W/m² | - |
| 1787760853 | 26.11° C | 57% | 1018.8 hPa | 0 mm | - | 672 W/m² | - |
| 1787760551 | 25.56° C | 58% | 1018.6 hPa | 0 mm | - | 638 W/m² | - |
| 1787760246 | 25° C | 61% | 1018.6 hPa | 0 mm | - | 305 W/m² | - |
| 1787759942 | 25.56° C | 60% | 1018.6 hPa | 0 mm | - | 179 W/m² | - |
| 1787759632 | 25.56° C | 59% | 1018.7 hPa | 0 mm | - | 652 W/m² | - |
| 1787759327 | 24.44° C | 62% | 1018.7 hPa | 0 mm | - | 692 W/m² | - |
| 1787759022 | 25° C | 64% | 1018.6 hPa | 0 mm | - | 192 W/m² | - |
| 1787758721 | 25.56° C | 66% | 1018.9 hPa | 0 mm | - | 634 W/m² | - |
| 1787758417 | 25° C | 66% | 1018.7 hPa | 0 mm | - | 402 W/m² | - |
| 1787758115 | 23.89° C | 71% | 1019 hPa | 0 mm | - | 560 W/m² | - |
| 1787757812 | 24.44° C | 69% | 1019 hPa | 0 mm | - | 311 W/m² | - |
| 1787757508 | 24.44° C | 69% | 1018.7 hPa | 0 mm | - | 520 W/m² | - |
* Rain latest hour (hover to see other rain measurements)
** Current wind speed in m/s (hover to see current wind gust speed)